Wetterdaten: aktuell Mittwoch, 18.09.2019 21:35
Datum Zeit Temp. A. Feuchte A. Luftdruck Regen Wind Richtung Richtung Sonnenschein ET UV Solar Windben Empfang
18.09.2019 21:35 9,6 C 54 % 1026,1 hPa 0,0 l/m 3,2 km/h N-NO 22 0 min 0,000 mm 0,0 UV-I 0 W/m 8,0 km/h 100 %
18.09.2019 21:30 9,7 C 53 % 1026,0 hPa 0,0 l/m 1,6 km/h N-NO 22 0 min 0,000 mm 0,0 UV-I 0 W/m 3,2 km/h 100 %
18.09.2019 21:25 9,8 C 53 % 1025,9 hPa 0,0 l/m 1,6 km/h N-NO 22 0 min 0,000 mm 0,0 UV-I 0 W/m 4,8 km/h 100 %
18.09.2019 21:20 9,9 C 53 % 1025,9 hPa 0,0 l/m 1,6 km/h NO 45 0 min 0,000 mm 0,0 UV-I 0 W/m 4,8 km/h 99 %
18.09.2019 21:15 10,1 C 52 % 1025,9 hPa 0,0 l/m 3,2 km/h NO 45 0 min 0,000 mm 0,0 UV-I 0 W/m 6,4 km/h 100 %
18.09.2019 21:10 10,4 C 51 % 1025,8 hPa 0,0 l/m 1,6 km/h NO 45 0 min 0,000 mm 0,0 UV-I 0 W/m 8,0 km/h 100 %
18.09.2019 21:05 10,7 C 50 % 1025,8 hPa 0,0 l/m 3,2 km/h NO 45 0 min 0,000 mm 0,0 UV-I 0 W/m 6,4 km/h 100 %
18.09.2019 21:00 10,8 C 50 % 1025,7 hPa 0,0 l/m 3,2 km/h N-NO 22 0 min 0,025 mm 0,0 UV-I 0 W/m 6,4 km/h 97 %
18.09.2019 20:55 10,8 C 49 % 1025,7 hPa 0,0 l/m 3,2 km/h N-NO 22 0 min 0,000 mm 0,0 UV-I 0 W/m 6,4 km/h 100 %
18.09.2019 20:50 10,8 C 50 % 1025,7 hPa 0,0 l/m 1,6 km/h NO 45 0 min 0,000 mm 0,0 UV-I 0 W/m 4,8 km/h 100 %
18.09.2019 20:45 10,8 C 49 % 1025,6 hPa 0,0 l/m 0,0 km/h N 0 0 min 0,000 mm 0,0 UV-I 0 W/m 0,0 km/h 99 %
18.09.2019 20:40 11,1 C 48 % 1025,6 hPa 0,0 l/m 0,0 km/h N 0 0 min 0,000 mm 0,0 UV-I 0 W/m 0,0 km/h 100 %
18.09.2019 20:35 11,5 C 48 % 1025,6 hPa 0,0 l/m 0,0 km/h N 0 0 min 0,000 mm 0,0 UV-I 0 W/m 0,0 km/h 100 %
18.09.2019 20:30 11,9 C 46 % 1025,6 hPa 0,0 l/m 0,0 km/h N 0 0 min 0,000 mm 0,0 UV-I 0 W/m 0,0 km/h 100 %
18.09.2019 20:25 12,2 C 45 % 1025,5 hPa 0,0 l/m 0,0 km/h N 0 0 min 0,000 mm 0,0 UV-I 0 W/m 0,0 km/h 100 %
18.09.2019 20:20 12,3 C 44 % 1025,4 hPa 0,0 l/m 0,0 km/h N 0 0 min 0,000 mm 0,0 UV-I 0 W/m 0,0 km/h 100 %
18.09.2019 20:15 12,5 C 44 % 1025,4 hPa 0,0 l/m 0,0 km/h N 0 0 min 0,000 mm 0,0 UV-I 0 W/m 0,0 km/h 100 %
18.09.2019 20:10 12,6 C 44 % 1025,4 hPa 0,0 l/m 0,0 km/h N 0 0 min 0,000 mm 0,0 UV-I 0 W/m 0,0 km/h 100 %
18.09.2019 20:05 12,7 C 43 % 1025,3 hPa 0,0 l/m 0,0 km/h N 0 0 min 0,000 mm 0,0 UV-I 0 W/m 0,0 km/h 100 %
18.09.2019 20:00 12,9 C 43 % 1025,2 hPa 0,0 l/m 0,0 km/h N 0 0 min 0,025 mm 0,0 UV-I 0 W/m 0,0 km/h 96 %
18.09.2019 19:55 13,1 C 42 % 1025,1 hPa 0,0 l/m 0,0 km/h N 0 0 min 0,000 mm 0,0 UV-I 0 W/m 0,0 km/h 99 %
18.09.2019 19:50 13,3 C 42 % 1025,0 hPa 0,0 l/m 0,0 km/h N 360 0 min 0,000 mm 0,0 UV-I 0 W/m 3,2 km/h 100 %
18.09.2019 19:45 13,5 C 41 % 1025,0 hPa 0,0 l/m 0,0 km/h N 360 0 min 0,000 mm 0,0 UV-I 0 W/m 3,2 km/h 100 %
18.09.2019 19:40 13,6 C 40 % 1024,9 hPa 0,0 l/m 1,6 km/h N 360 0 min 0,000 mm 0,0 UV-I 0 W/m 6,4 km/h 100 %
18.09.2019 19:35 13,7 C 40 % 1024,9 hPa 0,0 l/m 0,0 km/h N 360 0 min 0,000 mm 0,0 UV-I 5 W/m 3,2 km/h 100 %
18.09.2019 19:30 13,9 C 39 % 1024,8 hPa 0,0 l/m 0,0 km/h N 360 0 min 0,000 mm 0,0 UV-I 7 W/m 3,2 km/h 100 %
18.09.2019 19:25 14,1 C 39 % 1024,8 hPa 0,0 l/m 1,6 km/h N 360 0 min 0,000 mm 0,0 UV-I 11 W/m 4,8 km/h 100 %
18.09.2019 19:20 14,2 C 38 % 1024,8 hPa 0,0 l/m 0,0 km/h N 360 0 min 0,000 mm 0,0 UV-I 14 W/m 4,8 km/h 100 %
18.09.2019 19:15 14,5 C 38 % 1024,7 hPa 0,0 l/m 0,0 km/h N 0 0 min 0,000 mm 0,0 UV-I 18 W/m 0,0 km/h 100 %
18.09.2019 19:10 14,7 C 38 % 1024,6 hPa 0,0 l/m 0,0 km/h N 360 5 min 0,000 mm 0,0 UV-I 21 W/m 1,6 km/h 100 %
18.09.2019 19:05 14,9 C 36 % 1024,6 hPa 0,0 l/m 1,6 km/h N-NO 22 0 min 0,000 mm 0,0 UV-I 25 W/m 4,8 km/h 100 %
18.09.2019 19:00 15,2 C 36 % 1024,6 hPa 0,0 l/m 0,0 km/h N-NW 337 0 min 0,076 mm 0,0 UV-I 26 W/m 3,2 km/h 96 %
18.09.2019 18:55 15,3 C 35 % 1024,6 hPa 0,0 l/m 1,6 km/h NW 315 0 min 0,000 mm 0,0 UV-I 32 W/m 11,3 km/h 100 %
18.09.2019 18:50 15,3 C 35 % 1024,6 hPa 0,0 l/m 1,6 km/h N-NW 337 0 min 0,000 mm 0,0 UV-I 33 W/m 6,4 km/h 99 %
18.09.2019 18:45 15,5 C 35 % 1024,5 hPa 0,0 l/m 0,0 km/h N-NW 337 0 min 0,000 mm 0,0 UV-I 37 W/m 3,2 km/h 100 %
18.09.2019 18:40 15,7 C 33 % 1024,5 hPa 0,0 l/m 1,6 km/h N 360 0 min 0,000 mm 0,0 UV-I 40 W/m 6,4 km/h 100 %
18.09.2019 18:35 15,9 C 33 % 1024,5 hPa 0,0 l/m 1,6 km/h N-NW 337 0 min 0,000 mm 0,0 UV-I 44 W/m 8,0 km/h 100 %
18.09.2019 18:30 16,1 C 34 % 1024,5 hPa 0,0 l/m 0,0 km/h NW 315 5 min 0,000 mm 0,0 UV-I 84 W/m 3,2 km/h 100 %
18.09.2019 18:25 16,0 C 34 % 1024,4 hPa 0,0 l/m 3,2 km/h N-NO 22 5 min 0,000 mm 0,0 UV-I 141 W/m 11,3 km/h 100 %
18.09.2019 18:20 16,1 C 34 % 1024,4 hPa 0,0 l/m 3,2 km/h N 360 5 min 0,000 mm 0,0 UV-I 160 W/m 11,3 km/h 100 %
18.09.2019 18:15 16,2 C 33 % 1024,4 hPa 0,0 l/m 1,6 km/h N-NO 22 5 min 0,000 mm 0,0 UV-I 174 W/m 9,7 km/h 100 %
18.09.2019 18:10 16,2 C 33 % 1024,3 hPa 0,0 l/m 1,6 km/h N-NO 22 5 min 0,000 mm 0,0 UV-I 188 W/m 6,4 km/h 100 %
18.09.2019 18:05 16,2 C 32 % 1024,3 hPa 0,0 l/m 4,8 km/h N-NO 22 5 min 0,000 mm 0,5 UV-I 209 W/m 11,3 km/h 100 %
18.09.2019 18:00 16,1 C 33 % 1024,4 hPa 0,0 l/m 1,6 km/h N-NW 337 5 min 0,127 mm 0,5 UV-I 234 W/m 9,7 km/h 100 %
18.09.2019 17:55 15,9 C 35 % 1024,4 hPa 0,0 l/m 0,0 km/h N 0 5 min 0,000 mm 0,6 UV-I 246 W/m 0,0 km/h 96 %
18.09.2019 17:50 16,1 C 35 % 1024,4 hPa 0,0 l/m 1,6 km/h N 360 5 min 0,000 mm 0,6 UV-I 149 W/m 8,0 km/h 100 %
18.09.2019 17:45 16,2 C 34 % 1024,3 hPa 0,0 l/m 1,6 km/h NW 315 0 min 0,000 mm 0,5 UV-I 65 W/m 8,0 km/h 100 %
18.09.2019 17:40 16,3 C 34 % 1024,4 hPa 0,0 l/m 3,2 km/h NW 315 5 min 0,000 mm 0,7 UV-I 243 W/m 12,9 km/h 100 %
18.09.2019 17:35 16,3 C 33 % 1024,4 hPa 0,0 l/m 1,6 km/h N-NW 337 5 min 0,000 mm 0,8 UV-I 309 W/m 11,3 km/h 100 %
18.09.2019 17:30 16,4 C 32 % 1024,4 hPa 0,0 l/m 4,8 km/h N-NO 22 5 min 0,000 mm 0,8 UV-I 327 W/m 9,7 km/h 100 %
18.09.2019 17:25 16,6 C 32 % 1024,4 hPa 0,0 l/m 3,2 km/h N-NO 22 0 min 0,000 mm 0,9 UV-I 134 W/m 8,0 km/h 100 %
18.09.2019 17:20 16,7 C 32 % 1024,4 hPa 0,0 l/m 3,2 km/h NW 315 5 min 0,000 mm 0,9 UV-I 338 W/m 9,7 km/h 100 %
18.09.2019 17:15 17,0 C 31 % 1024,4 hPa 0,0 l/m 3,2 km/h N 360 0 min 0,000 mm 1,1 UV-I 81 W/m 12,9 km/h 100 %
18.09.2019 17:10 17,3 C 30 % 1024,4 hPa 0,0 l/m 1,6 km/h NW 315 5 min 0,000 mm 1,1 UV-I 374 W/m 6,4 km/h 100 %
18.09.2019 17:05 17,7 C 31 % 1024,4 hPa 0,0 l/m 1,6 km/h N-NW 337 5 min 0,000 mm 1,3 UV-I 406 W/m 12,9 km/h 100 %
18.09.2019 17:00 17,6 C 32 % 1024,4 hPa 0,0 l/m 6,4 km/h N-NW 337 5 min 0,305 mm 1,4 UV-I 418 W/m 16,1 km/h 100 %
18.09.2019 16:55 17,7 C 31 % 1024,5 hPa 0,0 l/m 3,2 km/h W-SW 247 5 min 0,000 mm 1,4 UV-I 438 W/m 16,1 km/h 96 %
18.09.2019 16:50 17,7 C 31 % 1024,4 hPa 0,0 l/m 1,6 km/h SW 225 5 min 0,000 mm 1,5 UV-I 439 W/m 11,3 km/h 100 %
18.09.2019 16:45 17,7 C 30 % 1024,6 hPa 0,0 l/m 3,2 km/h NW 315 5 min 0,000 mm 1,6 UV-I 445 W/m 14,5 km/h 100 %
18.09.2019 16:40 17,8 C 30 % 1024,6 hPa 0,0 l/m 1,6 km/h N-NO 22 5 min 0,000 mm 1,7 UV-I 459 W/m 12,9 km/h 99 %
18.09.2019 16:35 17,9 C 30 % 1024,6 hPa 0,0 l/m 3,2 km/h NW 315 5 min 0,000 mm 1,7 UV-I 464 W/m 8,0 km/h 100 %
18.09.2019 16:30 17,8 C 31 % 1024,6 hPa 0,0 l/m 1,6 km/h N-NO 22 5 min 0,000 mm 1,8 UV-I 473 W/m 6,4 km/h 100 %
18.09.2019 16:25 17,6 C 31 % 1024,6 hPa 0,0 l/m 3,2 km/h NW 315 5 min 0,000 mm 1,9 UV-I 485 W/m 11,3 km/h 100 %
18.09.2019 16:20 17,8 C 29 % 1024,6 hPa 0,0 l/m 6,4 km/h NW 315 5 min 0,000 mm 2,0 UV-I 497 W/m 22,5 km/h 100 %
18.09.2019 16:15 17,7 C 33 % 1024,5 hPa 0,0 l/m 1,6 km/h W-NW 292 5 min 0,000 mm 2,1 UV-I 515 W/m 12,9 km/h 100 %
18.09.2019 16:10 17,7 C 33 % 1024,6 hPa 0,0 l/m 4,8 km/h NW 315 5 min 0,000 mm 2,2 UV-I 529 W/m 14,5 km/h 100 %
18.09.2019 16:05 17,8 C 34 % 1024,6 hPa 0,0 l/m 3,2 km/h W 270 5 min 0,000 mm 2,3 UV-I 538 W/m 14,5 km/h 100 %
18.09.2019 16:00 17,3 C 34 % 1024,6 hPa 0,0 l/m 1,6 km/h NW 315 5 min 0,254 mm 2,3 UV-I 557 W/m 8,0 km/h 100 %
18.09.2019 15:55 16,9 C 33 % 1024,7 hPa 0,0 l/m 3,2 km/h N-NW 337 0 min 0,000 mm 2,4 UV-I 127 W/m 14,5 km/h 97 %
18.09.2019 15:50 17,4 C 33 % 1024,7 hPa 0,0 l/m 6,4 km/h N 360 5 min 0,000 mm 2,5 UV-I 589 W/m 12,9 km/h 100 %
18.09.2019 15:45 17,8 C 34 % 1024,7 hPa 0,0 l/m 6,4 km/h N 360 5 min 0,000 mm 2,6 UV-I 612 W/m 14,5 km/h 100 %
18.09.2019 15:40 17,6 C 36 % 1024,7 hPa 0,0 l/m 4,8 km/h N-NW 337 5 min 0,000 mm 2,7 UV-I 612 W/m 12,9 km/h 100 %
18.09.2019 15:35 17,4 C 34 % 1024,8 hPa 0,0 l/m 4,8 km/h NW 315 5 min 0,000 mm 2,8 UV-I 617 W/m 14,5 km/h 100 %
18.09.2019 15:30 17,3 C 35 % 1024,8 hPa 0,0 l/m 6,4 km/h NW 315 5 min 0,000 mm 2,9 UV-I 608 W/m 16,1 km/h 100 %
18.09.2019 15:25 16,6 C 36 % 1024,8 hPa 0,0 l/m 4,8 km/h N 360 5 min 0,000 mm 3,0 UV-I 631 W/m 14,5 km/h 100 %
18.09.2019 15:20 15,9 C 38 % 1024,9 hPa 0,0 l/m 0,0 km/h W-SW 247 0 min 0,000 mm 2,3 UV-I 149 W/m 8,0 km/h 100 %
18.09.2019 15:15 16,3 C 36 % 1024,9 hPa 0,0 l/m 0,0 km/h W 270 0 min 0,000 mm 2,2 UV-I 188 W/m 4,8 km/h 100 %
18.09.2019 15:10 16,3 C 38 % 1025,0 hPa 0,0 l/m 1,6 km/h N-NW 337 0 min 0,000 mm 3,1 UV-I 128 W/m 12,9 km/h 100 %
18.09.2019 15:05 16,8 C 36 % 1025,0 hPa 0,0 l/m 3,2 km/h NW 315 0 min 0,000 mm 2,3 UV-I 169 W/m 11,3 km/h 100 %
18.09.2019 15:00 17,3 C 34 % 1025,0 hPa 0,0 l/m 1,6 km/h NW 315 0 min 0,305 mm 3,2 UV-I 202 W/m 11,3 km/h 100 %
18.09.2019 14:55 17,1 C 35 % 1025,0 hPa 0,0 l/m 0,0 km/h SW 225 5 min 0,000 mm 3,6 UV-I 687 W/m 1,6 km/h 100 %
18.09.2019 14:50 16,4 C 36 % 1025,1 hPa 0,0 l/m 1,6 km/h W-SW 247 5 min 0,000 mm 3,6 UV-I 663 W/m 6,4 km/h 97 %
18.09.2019 14:45 16,5 C 35 % 1025,2 hPa 0,0 l/m 0,0 km/h W-NW 292 0 min 0,000 mm 3,5 UV-I 116 W/m 8,0 km/h 100 %
18.09.2019 14:40 16,8 C 35 % 1025,2 hPa 0,0 l/m 1,6 km/h NW 315 5 min 0,000 mm 3,8 UV-I 557 W/m 8,0 km/h 100 %
18.09.2019 14:35 17,0 C 36 % 1025,2 hPa 0,0 l/m 1,6 km/h N-NO 22 5 min 0,000 mm 3,9 UV-I 693 W/m 9,7 km/h 95 %
18.09.2019 14:30 17,5 C 35 % 1025,2 hPa 0,0 l/m 3,2 km/h NW 315 5 min 0,000 mm 4,0 UV-I 700 W/m 9,7 km/h 100 %
18.09.2019 14:25 17,5 C 35 % 1025,4 hPa 0,0 l/m 4,8 km/h N 360 5 min 0,000 mm 4,0 UV-I 703 W/m 14,5 km/h 100 %
18.09.2019 14:20 17,3 C 36 % 1025,3 hPa 0,0 l/m 1,6 km/h N 360 5 min 0,000 mm 4,1 UV-I 696 W/m 9,7 km/h 100 %
18.09.2019 14:15 17,1 C 37 % 1025,4 hPa 0,0 l/m 4,8 km/h N-NW 337 5 min 0,000 mm 4,1 UV-I 696 W/m 14,5 km/h 100 %
18.09.2019 14:10 16,7 C 39 % 1025,3 hPa 0,0 l/m 3,2 km/h NW 315 5 min 0,000 mm 4,1 UV-I 703 W/m 16,1 km/h 100 %
18.09.2019 14:05 16,6 C 38 % 1025,4 hPa 0,0 l/m 3,2 km/h N-NO 22 0 min 0,000 mm 3,1 UV-I 246 W/m 12,9 km/h 100 %
18.09.2019 14:00 17,3 C 37 % 1025,5 hPa 0,0 l/m 4,8 km/h N 360 5 min 0,432 mm 4,4 UV-I 775 W/m 16,1 km/h 100 %
18.09.2019 13:55 17,2 C 37 % 1025,5 hPa 0,0 l/m 3,2 km/h N-NO 22 5 min 0,000 mm 4,5 UV-I 775 W/m 11,3 km/h 100 %
18.09.2019 13:50 17,2 C 37 % 1025,5 hPa 0,0 l/m 4,8 km/h NW 315 5 min 0,000 mm 4,4 UV-I 751 W/m 11,3 km/h 96 %
18.09.2019 13:45 17,1 C 36 % 1025,5 hPa 0,0 l/m 6,4 km/h W-SW 247 5 min 0,000 mm 4,5 UV-I 786 W/m 20,9 km/h 100 %
18.09.2019 13:40 17,5 C 38 % 1025,6 hPa 0,0 l/m 6,4 km/h NW 315 5 min 0,000 mm 4,5 UV-I 793 W/m 20,9 km/h 100 %
18.09.2019 13:35 17,1 C 40 % 1025,6 hPa 0,0 l/m 1,6 km/h S-SW 202 5 min 0,000 mm 4,5 UV-I 780 W/m 3,2 km/h 100 %
18.09.2019 13:30 16,6 C 38 % 1025,6 hPa 0,0 l/m 3,2 km/h W-SW 247 5 min 0,000 mm 4,6 UV-I 780 W/m 11,3 km/h 100 %
18.09.2019 13:25 16,7 C 39 % 1025,6 hPa 0,0 l/m 4,8 km/h W-SW 247 5 min 0,000 mm 4,6 UV-I 775 W/m 19,3 km/h 100 %
18.09.2019 13:20 16,9 C 39 % 1025,7 hPa 0,0 l/m 1,6 km/h W 270 5 min 0,000 mm 4,6 UV-I 795 W/m 9,7 km/h 100 %
18.09.2019 13:15 16,6 C 42 % 1025,8 hPa 0,0 l/m 0,0 km/h W 270 5 min 0,000 mm 4,6 UV-I 789 W/m 1,6 km/h 100 %
18.09.2019 13:10 16,4 C 42 % 1025,9 hPa 0,0 l/m 0,0 km/h W-NW 292 5 min 0,000 mm 4,6 UV-I 773 W/m 3,2 km/h 100 %
18.09.2019 13:05 16,3 C 44 % 1025,9 hPa 0,0 l/m 0,0 km/h W 270 5 min 0,000 mm 4,6 UV-I 385 W/m 1,6 km/h 100 %
18.09.2019 13:00 16,2 C 44 % 1025,9 hPa 0,0 l/m 0,0 km/h S-SO 157 5 min 0,305 mm 4,6 UV-I 847 W/m 3,2 km/h 100 %
18.09.2019 12:55 15,9 C 46 % 1026,0 hPa 0,0 l/m 1,6 km/h S-SO 157 5 min 0,000 mm 4,6 UV-I 854 W/m 9,7 km/h 100 %
18.09.2019 12:50 15,7 C 47 % 1025,9 hPa 0,0 l/m 3,2 km/h S-SO 157 5 min 0,000 mm 4,4 UV-I 844 W/m 12,9 km/h 97 %
18.09.2019 12:45 15,3 C 47 % 1026,0 hPa 0,0 l/m 1,6 km/h S-SO 157 5 min 0,000 mm 3,9 UV-I 714 W/m 9,7 km/h 100 %
18.09.2019 12:40 15,3 C 48 % 1026,0 hPa 0,0 l/m 0,0 km/h SW 225 5 min 0,000 mm 3,5 UV-I 367 W/m 1,6 km/h 100 %
18.09.2019 12:35 15,7 C 47 % 1026,1 hPa 0,0 l/m 1,6 km/h S-SW 202 5 min 0,000 mm 4,2 UV-I 921 W/m 11,3 km/h 100 %
18.09.2019 12:30 15,3 C 49 % 1026,0 hPa 0,0 l/m 3,2 km/h S 180 5 min 0,000 mm 4,2 UV-I 909 W/m 9,7 km/h 100 %
18.09.2019 12:25 15,3 C 48 % 1026,0 hPa 0,0 l/m 1,6 km/h O 90 5 min 0,000 mm 2,7 UV-I 366 W/m 8,0 km/h 100 %
18.09.2019 12:20 15,3 C 51 % 1026,0 hPa 0,0 l/m 1,6 km/h SO 135 0 min 0,000 mm 3,3 UV-I 345 W/m 4,8 km/h 100 %
18.09.2019 12:15 15,6 C 48 % 1026,1 hPa 0,0 l/m 1,6 km/h S-SW 202 5 min 0,000 mm 4,2 UV-I 865 W/m 8,0 km/h 100 %
18.09.2019 12:10 15,1 C 49 % 1026,1 hPa 0,0 l/m 1,6 km/h S 180 5 min 0,000 mm 4,0 UV-I 842 W/m 8,0 km/h 100 %
18.09.2019 12:05 14,6 C 51 % 1026,2 hPa 0,0 l/m 1,6 km/h S 180 0 min 0,000 mm 4,0 UV-I 332 W/m 3,2 km/h 100 %
18.09.2019 12:00 14,4 C 51 % 1026,2 hPa 0,0 l/m 1,6 km/h S-SW 202 5 min 0,178 mm 3,7 UV-I 812 W/m 8,0 km/h 100 %
18.09.2019 11:55 14,4 C 52 % 1026,2 hPa 0,0 l/m 0,0 km/h S 180 0 min 0,000 mm 2,3 UV-I 285 W/m 3,2 km/h 100 %
18.09.2019 11:50 14,6 C 51 % 1026,3 hPa 0,0 l/m 3,2 km/h S-SW 202 0 min 0,000 mm 2,1 UV-I 313 W/m 12,9 km/h 100 %
18.09.2019 11:45 15,0 C 50 % 1026,3 hPa 0,0 l/m 1,6 km/h SO 135 5 min 0,000 mm 3,7 UV-I 626 W/m 9,7 km/h 100 %
18.09.2019 11:40 14,6 C 52 % 1026,3 hPa 0,0 l/m 1,6 km/h S-SO 157 5 min 0,000 mm 3,7 UV-I 620 W/m 6,4 km/h 100 %
18.09.2019 11:35 14,0 C 54 % 1026,3 hPa 0,0 l/m 0,0 km/h N 0 5 min 0,000 mm 3,4 UV-I 367 W/m 0,0 km/h 100 %
18.09.2019 11:30 13,6 C 54 % 1026,4 hPa 0,0 l/m 0,0 km/h N 0 0 min 0,000 mm 2,3 UV-I 271 W/m 0,0 km/h 100 %
18.09.2019 11:25 13,5 C 54 % 1026,4 hPa 0,0 l/m 0,0 km/h N 0 0 min 0,000 mm 1,8 UV-I 230 W/m 0,0 km/h 100 %
18.09.2019 11:20 13,3 C 54 % 1026,4 hPa 0,0 l/m 0,0 km/h N 0 0 min 0,000 mm 2,0 UV-I 301 W/m 0,0 km/h 100 %
18.09.2019 11:15 13,4 C 55 % 1026,5 hPa 0,0 l/m 0,0 km/h N 0 5 min 0,000 mm 1,9 UV-I 330 W/m 0,0 km/h 96 %
18.09.2019 11:10 13,1 C 56 % 1026,5 hPa 0,0 l/m 0,0 km/h N 0 5 min 0,000 mm 1,9 UV-I 330 W/m 0,0 km/h 100 %
18.09.2019 11:05 13,2 C 54 % 1026,4 hPa 0,0 l/m 0,0 km/h N-NO 22 0 min 0,000 mm 2,0 UV-I 267 W/m 3,2 km/h 100 %
18.09.2019 11:00 13,7 C 53 % 1026,4 hPa 0,0 l/m 1,6 km/h N 360 0 min 0,254 mm 1,9 UV-I 262 W/m 4,8 km/h 100 %
18.09.2019 10:55 14,4 C 52 % 1026,5 hPa 0,0 l/m 1,6 km/h NW 315 5 min 0,000 mm 2,7 UV-I 689 W/m 4,8 km/h 100 %
18.09.2019 10:50 14,3 C 53 % 1026,4 hPa 0,0 l/m 1,6 km/h N-NO 22 5 min 0,000 mm 2,7 UV-I 664 W/m 8,0 km/h 100 %
18.09.2019 10:45 13,8 C 55 % 1026,3 hPa 0,0 l/m 3,2 km/h N-NO 22 5 min 0,000 mm 2,6 UV-I 670 W/m 8,0 km/h 100 %
18.09.2019 10:40 13,7 C 54 % 1026,3 hPa 0,0 l/m 1,6 km/h N-NO 22 5 min 0,000 mm 2,5 UV-I 661 W/m 6,4 km/h 100 %
18.09.2019 10:35 13,8 C 54 % 1026,3 hPa 0,0 l/m 8,0 km/h NO 45 5 min 0,000 mm 2,3 UV-I 671 W/m 14,5 km/h 100 %
18.09.2019 10:30 13,4 C 57 % 1026,2 hPa 0,0 l/m 1,6 km/h S 180 5 min 0,000 mm 2,3 UV-I 606 W/m 11,3 km/h 100 %
18.09.2019 10:25 12,9 C 56 % 1026,3 hPa 0,0 l/m 0,0 km/h SO 135 5 min 0,000 mm 2,2 UV-I 564 W/m 3,2 km/h 100 %
18.09.2019 10:20 12,7 C 56 % 1026,3 hPa 0,0 l/m 0,0 km/h SO 135 5 min 0,000 mm 2,1 UV-I 445 W/m 3,2 km/h 100 %
18.09.2019 10:15 12,7 C 56 % 1026,4 hPa 0,0 l/m 0,0 km/h N 360 5 min 0,000 mm 2,0 UV-I 438 W/m 4,8 km/h 96 %
18.09.2019 10:10 12,8 C 59 % 1026,3 hPa 0,0 l/m 0,0 km/h O 90 5 min 0,000 mm 1,9 UV-I 422 W/m 3,2 km/h 100 %
18.09.2019 10:05 12,3 C 60 % 1026,3 hPa 0,0 l/m 1,6 km/h SO 135 5 min 0,000 mm 1,8 UV-I 410 W/m 6,4 km/h 100 %
18.09.2019 10:00 11,9 C 63 % 1026,2 hPa 0,0 l/m 1,6 km/h SO 135 5 min 0,152 mm 1,7 UV-I 396 W/m 6,4 km/h 100 %
18.09.2019 09:55 11,6 C 63 % 1026,3 hPa 0,0 l/m 0,0 km/h S 180 5 min 0,000 mm 1,6 UV-I 380 W/m 4,8 km/h 100 %
18.09.2019 09:50 11,4 C 63 % 1026,2 hPa 0,0 l/m 0,0 km/h S 180 5 min 0,000 mm 1,5 UV-I 364 W/m 3,2 km/h 100 %
18.09.2019 09:45 11,2 C 65 % 1026,2 hPa 0,0 l/m 0,0 km/h S-SO 157 5 min 0,000 mm 1,4 UV-I 352 W/m 3,2 km/h 96 %
18.09.2019 09:40 10,7 C 65 % 1026,2 hPa 0,0 l/m 0,0 km/h N 0 5 min 0,000 mm 1,3 UV-I 336 W/m 0,0 km/h 100 %
18.09.2019 09:35 10,4 C 66 % 1026,2 hPa 0,0 l/m 0,0 km/h SO 135 5 min 0,000 mm 1,2 UV-I 322 W/m 1,6 km/h 100 %
18.09.2019 09:30 10,1 C 68 % 1026,1 hPa 0,0 l/m 0,0 km/h N 0 5 min 0,000 mm 1,2 UV-I 309 W/m 0,0 km/h 100 %
18.09.2019 09:25 9,8 C 68 % 1026,1 hPa 0,0 l/m 0,0 km/h N 0 5 min 0,000 mm 1,1 UV-I 292 W/m 0,0 km/h 100 %
18.09.2019 09:20 9,2 C 70 % 1026,2 hPa 0,0 l/m 0,0 km/h N 0 5 min 0,000 mm 1,0 UV-I 281 W/m 0,0 km/h 100 %
18.09.2019 09:15 8,7 C 70 % 1026,1 hPa 0,0 l/m 0,0 km/h SW 225 5 min 0,000 mm 0,9 UV-I 265 W/m 1,6 km/h 98 %
18.09.2019 09:10 8,7 C 70 % 1026,1 hPa 0,0 l/m 0,0 km/h N 0 5 min 0,000 mm 0,8 UV-I 255 W/m 0,0 km/h 100 %
18.09.2019 09:05 8,3 C 72 % 1026,1 hPa 0,0 l/m 0,0 km/h N 0 5 min 0,000 mm 0,8 UV-I 243 W/m 0,0 km/h 100 %
18.09.2019 09:00 7,8 C 72 % 1026,0 hPa 0,0 l/m 0,0 km/h N 0 5 min 0,076 mm 0,7 UV-I 229 W/m 0,0 km/h 100 %
18.09.2019 08:55 7,6 C 72 % 1026,0 hPa 0,0 l/m 0,0 km/h N 0 5 min 0,000 mm 0,6 UV-I 214 W/m 0,0 km/h 100 %
18.09.2019 08:50 7,3 C 73 % 1025,9 hPa 0,0 l/m 0,0 km/h N 0 5 min 0,000 mm 0,6 UV-I 202 W/m 0,0 km/h 100 %
18.09.2019 08:45 6,9 C 74 % 1025,9 hPa 0,0 l/m 0,0 km/h S-SW 202 5 min 0,000 mm 0,5 UV-I 190 W/m 1,6 km/h 100 %
18.09.2019 08:40 6,6 C 75 % 1025,9 hPa 0,0 l/m 0,0 km/h S-SW 202 5 min 0,000 mm 0,5 UV-I 178 W/m 1,6 km/h 100 %
18.09.2019 08:35 6,3 C 75 % 1025,9 hPa 0,0 l/m 0,0 km/h N 0 5 min 0,000 mm 0,0 UV-I 165 W/m 0,0 km/h 100 %
18.09.2019 08:30 6,0 C 76 % 1025,9 hPa 0,0 l/m 0,0 km/h N 0 5 min 0,000 mm 0,0 UV-I 153 W/m 0,0 km/h 100 %
18.09.2019 08:25 5,7 C 76 % 1025,8 hPa 0,0 l/m 0,0 km/h N 0 5 min 0,000 mm 0,0 UV-I 137 W/m 0,0 km/h 100 %
18.09.2019 08:20 5,4 C 76 % 1025,9 hPa 0,0 l/m 0,0 km/h O-SO 112 5 min 0,000 mm 0,0 UV-I 127 W/m 1,6 km/h 100 %
18.09.2019 08:15 5,3 C 77 % 1025,7 hPa 0,0 l/m 0,0 km/h O-SO 112 5 min 0,000 mm 0,0 UV-I 118 W/m 1,6 km/h 100 %
18.09.2019 08:10 5,2 C 76 % 1025,7 hPa 0,0 l/m 0,0 km/h N 0 5 min 0,000 mm 0,0 UV-I 109 W/m 0,0 km/h 95 %
18.09.2019 08:05 5,1 C 77 % 1025,7 hPa 0,0 l/m 0,0 km/h N 0 5 min 0,000 mm 0,0 UV-I 97 W/m 0,0 km/h 100 %
18.09.2019 08:00 4,8 C 78 % 1025,5 hPa 0,0 l/m 0,0 km/h N 0 5 min 0,025 mm 0,0 UV-I 84 W/m 0,0 km/h 100 %
18.09.2019 07:55 4,7 C 78 % 1025,5 hPa 0,0 l/m 0,0 km/h N 0 0 min 0,000 mm 0,0 UV-I 72 W/m 0,0 km/h 100 %
18.09.2019 07:50 4,5 C 78 % 1025,5 hPa 0,0 l/m 0,0 km/h N 0 0 min 0,000 mm 0,0 UV-I 62 W/m 0,0 km/h 98 %
18.09.2019 07:45 4,4 C 78 % 1025,4 hPa 0,0 l/m 0,0 km/h N 0 0 min 0,000 mm 0,0 UV-I 51 W/m 0,0 km/h 100 %
18.09.2019 07:40 4,5 C 78 % 1025,3 hPa 0,0 l/m 0,0 km/h NO 45 0 min 0,000 mm 0,0 UV-I 42 W/m 4,8 km/h 100 %
18.09.2019 07:35 4,4 C 79 % 1025,3 hPa 0,0 l/m 0,0 km/h N 0 0 min 0,000 mm 0,0 UV-I 35 W/m 0,0 km/h 100 %
18.09.2019 07:30 4,3 C 79 % 1025,2 hPa 0,0 l/m 1,6 km/h N-NO 22 0 min 0,000 mm 0,0 UV-I 25 W/m 3,2 km/h 100 %
18.09.2019 07:25 4,0 C 79 % 1025,2 hPa 0,0 l/m 0,0 km/h N-NO 22 0 min 0,000 mm 0,0 UV-I 21 W/m 3,2 km/h 100 %
18.09.2019 07:20 3,9 C 78 % 1025,2 hPa 0,0 l/m 0,0 km/h N 0 0 min 0,000 mm 0,0 UV-I 18 W/m 0,0 km/h 99 %
18.09.2019 07:15 3,8 C 77 % 1025,1 hPa 0,0 l/m 1,6 km/h N-NO 22 0 min 0,000 mm 0,0 UV-I 12 W/m 4,8 km/h 100 %
18.09.2019 07:10 3,9 C 77 % 1025,0 hPa 0,0 l/m 1,6 km/h N 360 0 min 0,000 mm 0,0 UV-I 11 W/m 4,8 km/h 97 %
18.09.2019 07:05 4,4 C 75 % 1025,1 hPa 0,0 l/m 1,6 km/h O 90 0 min 0,000 mm 0,0 UV-I 7 W/m 6,4 km/h 99 %
18.09.2019 07:00 4,8 C 77 % 1025,0 hPa 0,0 l/m 0,0 km/h W-SW 247 0 min 0,000 mm 0,0 UV-I 5 W/m 3,2 km/h 99 %
18.09.2019 06:55 4,8 C 77 % 1025,0 hPa 0,0 l/m 0,0 km/h N 0 0 min 0,000 mm 0,0 UV-I 0 W/m 0,0 km/h 100 %
18.09.2019 06:50 4,6 C 76 % 1024,9 hPa 0,0 l/m 0,0 km/h N 0 0 min 0,000 mm 0,0 UV-I 0 W/m 0,0 km/h 100 %
18.09.2019 06:45 4,7 C 75 % 1024,9 hPa 0,0 l/m 0,0 km/h N 0 0 min 0,000 mm 0,0 UV-I 0 W/m 0,0 km/h 99 %
18.09.2019 06:40 5,1 C 76 % 1024,8 hPa 0,0 l/m 0,0 km/h N 0 0 min 0,000 mm 0,0 UV-I 0 W/m 0,0 km/h 100 %
18.09.2019 06:35 5,1 C 77 % 1024,7 hPa 0,0 l/m 0,0 km/h N 0 0 min 0,000 mm 0,0 UV-I 0 W/m 0,0 km/h 100 %
18.09.2019 06:30 4,9 C 76 % 1024,7 hPa 0,0 l/m 0,0 km/h N-NO 22 0 min 0,000 mm 0,0 UV-I 0 W/m 1,6 km/h 100 %
18.09.2019 06:25 5,4 C 74 % 1024,6 hPa 0,0 l/m 1,6 km/h O-NO 67 0 min 0,000 mm 0,0 UV-I 0 W/m 8,0 km/h 100 %
18.09.2019 06:20 5,8 C 78 % 1024,4 hPa 0,0 l/m 1,6 km/h W-NW 292 0 min 0,000 mm 0,0 UV-I 0 W/m 4,8 km/h 100 %
18.09.2019 06:15 5,2 C 80 % 1024,4 hPa 0,0 l/m 3,2 km/h W-NW 292 0 min 0,000 mm 0,0 UV-I 0 W/m 8,0 km/h 100 %
18.09.2019 06:10 4,6 C 80 % 1024,3 hPa 0,0 l/m 3,2 km/h W-NW 292 0 min 0,000 mm 0,0 UV-I 0 W/m 9,7 km/h 96 %
18.09.2019 06:05 4,1 C 78 % 1024,5 hPa 0,0 l/m 0,0 km/h N 0 0 min 0,000 mm 0,0 UV-I 0 W/m 0,0 km/h 99 %
18.09.2019 06:00 3,9 C 78 % 1024,4 hPa 0,0 l/m 0,0 km/h N 0 0 min 0,000 mm 0,0 UV-I 0 W/m 0,0 km/h 100 %
18.09.2019 05:55 3,9 C 78 % 1024,4 hPa 0,0 l/m 0,0 km/h N 0 0 min 0,000 mm 0,0 UV-I 0 W/m 0,0 km/h 100 %
18.09.2019 05:50 3,9 C 77 % 1024,4 hPa 0,0 l/m 0,0 km/h N 0 0 min 0,000 mm 0,0 UV-I 0 W/m 0,0 km/h 100 %
18.09.2019 05:45 4,1 C 77 % 1024,4 hPa 0,0 l/m 0,0 km/h N 0 0 min 0,000 mm 0,0 UV-I 0 W/m 0,0 km/h 100 %
18.09.2019 05:40 4,2 C 77 % 1024,3 hPa 0,0 l/m 0,0 km/h N 0 0 min 0,000 mm 0,0 UV-I 0 W/m 0,0 km/h 100 %
18.09.2019 05:35 4,3 C 77 % 1024,3 hPa 0,0 l/m 0,0 km/h N 0 0 min 0,000 mm 0,0 UV-I 0 W/m 0,0 km/h 100 %
18.09.2019 05:30 4,3 C 77 % 1024,3 hPa 0,0 l/m 0,0 km/h N 0 0 min 0,000 mm 0,0 UV-I 0 W/m 0,0 km/h 97 %
18.09.2019 05:25 4,3 C 77 % 1024,3 hPa 0,0 l/m 0,0 km/h N 0 0 min 0,000 mm 0,0 UV-I 0 W/m 0,0 km/h 99 %
18.09.2019 05:20 4,4 C 76 % 1024,2 hPa 0,0 l/m 0,0 km/h N 0 0 min 0,000 mm 0,0 UV-I 0 W/m 0,0 km/h 100 %
18.09.2019 05:15 4,6 C 76 % 1024,3 hPa 0,0 l/m 0,0 km/h N 0 0 min 0,000 mm 0,0 UV-I 0 W/m 0,0 km/h 100 %
18.09.2019 05:10 4,7 C 76 % 1024,1 hPa 0,0 l/m 0,0 km/h N 0 0 min 0,000 mm 0,0 UV-I 0 W/m 0,0 km/h 100 %
18.09.2019 05:05 4,6 C 76 % 1024,0 hPa 0,0 l/m 0,0 km/h N 0 0 min 0,000 mm 0,0 UV-I 0 W/m 0,0 km/h 96 %
18.09.2019 05:00 4,7 C 76 % 1024,1 hPa 0,0 l/m 0,0 km/h N 0 0 min 0,000 mm 0,0 UV-I 0 W/m 0,0 km/h 100 %
18.09.2019 04:55 4,8 C 75 % 1024,1 hPa 0,0 l/m 0,0 km/h N 0 0 min 0,000 mm 0,0 UV-I 0 W/m 0,0 km/h 100 %
18.09.2019 04:50 5,3 C 74 % 1024,1 hPa 0,0 l/m 0,0 km/h N 0 0 min 0,000 mm 0,0 UV-I 0 W/m 0,0 km/h 100 %
18.09.2019 04:45 5,3 C 76 % 1024,0 hPa 0,0 l/m 0,0 km/h N 0 0 min 0,000 mm 0,0 UV-I 0 W/m 0,0 km/h 99 %
18.09.2019 04:40 5,1 C 76 % 1024,0 hPa 0,0 l/m 0,0 km/h N 0 0 min 0,000 mm 0,0 UV-I 0 W/m 0,0 km/h 100 %
18.09.2019 04:35 5,0 C 75 % 1024,0 hPa 0,0 l/m 0,0 km/h N 0 0 min 0,000 mm 0,0 UV-I 0 W/m 0,0 km/h 100 %
18.09.2019 04:30 5,2 C 74 % 1023,9 hPa 0,0 l/m 0,0 km/h N 0 0 min 0,000 mm 0,0 UV-I 0 W/m 0,0 km/h 100 %
18.09.2019 04:25 5,3 C 74 % 1023,9 hPa 0,0 l/m 0,0 km/h N 0 0 min 0,000 mm 0,0 UV-I 0 W/m 0,0 km/h 100 %
18.09.2019 04:20 5,6 C 73 % 1024,0 hPa 0,0 l/m 0,0 km/h N 0 0 min 0,000 mm 0,0 UV-I 0 W/m 0,0 km/h 100 %
18.09.2019 04:15 5,8 C 74 % 1023,9 hPa 0,0 l/m 0,0 km/h N 0 0 min 0,000 mm 0,0 UV-I 0 W/m 0,0 km/h 100 %
18.09.2019 04:10 5,7 C 75 % 1023,8 hPa 0,0 l/m 1,6 km/h N-NW 337 0 min 0,000 mm 0,0 UV-I 0 W/m 4,8 km/h 90 %
18.09.2019 04:05 5,6 C 74 % 1023,8 hPa 0,0 l/m 1,6 km/h NW 315 0 min 0,000 mm 0,0 UV-I 0 W/m 4,8 km/h 67 %
18.09.2019 04:00 5,7 C 74 % 1023,9 hPa 0,0 l/m 0,0 km/h N 0 0 min 0,000 mm 0,0 UV-I 0 W/m 0,0 km/h 100 %
18.09.2019 03:55 5,7 C 75 % 1023,8 hPa 0,0 l/m 0,0 km/h N 0 0 min 0,000 mm 0,0 UV-I 0 W/m 0,0 km/h 100 %
18.09.2019 03:50 5,6 C 74 % 1023,8 hPa 0,0 l/m 0,0 km/h N 0 0 min 0,000 mm 0,0 UV-I 0 W/m 0,0 km/h 99 %
18.09.2019 03:45 5,6 C 74 % 1023,7 hPa 0,0 l/m 0,0 km/h N 0 0 min 0,000 mm 0,0 UV-I 0 W/m 0,0 km/h 100 %
18.09.2019 03:40 5,7 C 74 % 1023,7 hPa 0,0 l/m 0,0 km/h N 0 0 min 0,000 mm 0,0 UV-I 0 W/m 0,0 km/h 100 %
18.09.2019 03:35 5,8 C 74 % 1023,7 hPa 0,0 l/m 0,0 km/h N 0 0 min 0,000 mm 0,0 UV-I 0 W/m 0,0 km/h 100 %
18.09.2019 03:30 5,9 C 73 % 1023,7 hPa 0,0 l/m 0,0 km/h N 0 0 min 0,000 mm 0,0 UV-I 0 W/m 0,0 km/h 100 %
18.09.2019 03:25 5,9 C 73 % 1023,7 hPa 0,0 l/m 0,0 km/h N 0 0 min 0,000 mm 0,0 UV-I 0 W/m 0,0 km/h 97 %
18.09.2019 03:20 6,1 C 73 % 1023,7 hPa 0,0 l/m 0,0 km/h N 0 0 min 0,000 mm 0,0 UV-I 0 W/m 0,0 km/h 100 %
18.09.2019 03:15 6,2 C 73 % 1023,7 hPa 0,0 l/m 0,0 km/h N 0 0 min 0,000 mm 0,0 UV-I 0 W/m 0,0 km/h 100 %
18.09.2019 03:10 6,4 C 72 % 1023,7 hPa 0,0 l/m 0,0 km/h W 270 0 min 0,000 mm 0,0 UV-I 0 W/m 3,2 km/h 100 %
18.09.2019 03:05 6,5 C 72 % 1023,7 hPa 0,0 l/m 0,0 km/h N 0 0 min 0,000 mm 0,0 UV-I 0 W/m 0,0 km/h 96 %
18.09.2019 03:00 6,6 C 72 % 1023,7 hPa 0,0 l/m 0,0 km/h N 0 0 min 0,000 mm 0,0 UV-I 0 W/m 0,0 km/h 99 %
18.09.2019 02:55 6,7 C 71 % 1023,7 hPa 0,0 l/m 0,0 km/h N 0 0 min 0,000 mm 0,0 UV-I 0 W/m 0,0 km/h 100 %
18.09.2019 02:50 6,9 C 70 % 1023,8 hPa 0,0 l/m 0,0 km/h N 0 0 min 0,000 mm 0,0 UV-I 0 W/m 0,0 km/h 98 %
18.09.2019 02:45 7,2 C 69 % 1023,7 hPa 0,0 l/m 0,0 km/h N 0 0 min 0,000 mm 0,0 UV-I 0 W/m 0,0 km/h 100 %
18.09.2019 02:40 7,4 C 69 % 1023,6 hPa 0,0 l/m 0,0 km/h W 270 0 min 0,000 mm 0,0 UV-I 0 W/m 3,2 km/h 100 %
18.09.2019 02:35 7,7 C 68 % 1023,7 hPa 0,0 l/m 1,6 km/h W 270 0 min 0,000 mm 0,0 UV-I 0 W/m 4,8 km/h 100 %
18.09.2019 02:30 7,7 C 69 % 1023,6 hPa 0,0 l/m 1,6 km/h W 270 0 min 0,000 mm 0,0 UV-I 0 W/m 4,8 km/h 100 %
18.09.2019 02:25 7,6 C 68 % 1023,6 hPa 0,0 l/m 0,0 km/h N 0 0 min 0,000 mm 0,0 UV-I 0 W/m 0,0 km/h 100 %
18.09.2019 02:20 7,8 C 68 % 1023,6 hPa 0,0 l/m 0,0 km/h N 0 0 min 0,000 mm 0,0 UV-I 0 W/m 0,0 km/h 100 %
18.09.2019 02:15 7,9 C 67 % 1023,6 hPa 0,0 l/m 0,0 km/h N 0 0 min 0,000 mm 0,0 UV-I 0 W/m 0,0 km/h 100 %
18.09.2019 02:10 8,1 C 67 % 1023,7 hPa 0,0 l/m 0,0 km/h N 0 0 min 0,000 mm 0,0 UV-I 0 W/m 0,0 km/h 100 %
18.09.2019 02:05 7,9 C 68 % 1023,6 hPa 0,0 l/m 0,0 km/h N 0 0 min 0,000 mm 0,0 UV-I 0 W/m 0,0 km/h 100 %
18.09.2019 02:00 7,8 C 68 % 1023,5 hPa 0,0 l/m 0,0 km/h N 0 0 min 0,000 mm 0,0 UV-I 0 W/m 0,0 km/h 97 %
18.09.2019 01:55 7,8 C 67 % 1023,5 hPa 0,0 l/m 0,0 km/h N-NW 337 0 min 0,000 mm 0,0 UV-I 0 W/m 1,6 km/h 100 %
18.09.2019 01:50 8,2 C 66 % 1023,5 hPa 0,0 l/m 0,0 km/h N 0 0 min 0,000 mm 0,0 UV-I 0 W/m 0,0 km/h 99 %
18.09.2019 01:45 8,7 C 65 % 1023,4 hPa 0,0 l/m 0,0 km/h N 0 0 min 0,000 mm 0,0 UV-I 0 W/m 0,0 km/h 100 %
18.09.2019 01:40 9,0 C 65 % 1023,3 hPa 0,0 l/m 0,0 km/h N 0 0 min 0,000 mm 0,0 UV-I 0 W/m 0,0 km/h 100 %
18.09.2019 01:35 8,9 C 65 % 1023,2 hPa 0,0 l/m 0,0 km/h N 0 0 min 0,000 mm 0,0 UV-I 0 W/m 0,0 km/h 100 %
18.09.2019 01:30 8,9 C 65 % 1023,3 hPa 0,0 l/m 0,0 km/h N 0 0 min 0,000 mm 0,0 UV-I 0 W/m 0,0 km/h 100 %
18.09.2019 01:25 8,9 C 65 % 1023,2 hPa 0,0 l/m 0,0 km/h N 0 0 min 0,000 mm 0,0 UV-I 0 W/m 0,0 km/h 100 %
18.09.2019 01:20 9,1 C 64 % 1023,0 hPa 0,0 l/m 0,0 km/h N 0 0 min 0,000 mm 0,0 UV-I 0 W/m 0,0 km/h 100 %
18.09.2019 01:15 9,3 C 63 % 1023,0 hPa 0,0 l/m 0,0 km/h N 0 0 min 0,000 mm 0,0 UV-I 0 W/m 0,0 km/h 100 %
18.09.2019 01:10 9,5 C 63 % 1022,8 hPa 0,0 l/m 0,0 km/h N 0 0 min 0,000 mm 0,0 UV-I 0 W/m 0,0 km/h 100 %
18.09.2019 01:05 9,7 C 62 % 1022,7 hPa 0,0 l/m 0,0 km/h N 0 0 min 0,000 mm 0,0 UV-I 0 W/m 0,0 km/h 100 %
18.09.2019 01:00 9,8 C 61 % 1022,6 hPa 0,0 l/m 0,0 km/h N 0 0 min 0,000 mm 0,0 UV-I 0 W/m 0,0 km/h 98 %
18.09.2019 00:55 10,1 C 60 % 1022,6 hPa 0,0 l/m 0,0 km/h N 0 0 min 0,000 mm 0,0 UV-I 0 W/m 0,0 km/h 100 %
18.09.2019 00:50 10,3 C 59 % 1022,6 hPa 0,0 l/m 0,0 km/h N 0 0 min 0,000 mm 0,0 UV-I 0 W/m 0,0 km/h 100 %
18.09.2019 00:45 10,6 C 59 % 1022,5 hPa 0,0 l/m 0,0 km/h N 0 0 min 0,000 mm 0,0 UV-I 0 W/m 0,0 km/h 100 %
18.09.2019 00:40 10,8 C 58 % 1022,5 hPa 0,0 l/m 0,0 km/h N 0 0 min 0,000 mm 0,0 UV-I 0 W/m 0,0 km/h 98 %
18.09.2019 00:35 10,9 C 58 % 1022,5 hPa 0,0 l/m 0,0 km/h N 0 0 min 0,000 mm 0,0 UV-I 0 W/m 0,0 km/h 100 %
18.09.2019 00:30 10,9 C 58 % 1022,5 hPa 0,0 l/m 0,0 km/h N-NW 337 0 min 0,000 mm 0,0 UV-I 0 W/m 3,2 km/h 99 %
18.09.2019 00:25 11,0 C 58 % 1022,5 hPa 0,0 l/m 0,0 km/h N 360 0 min 0,000 mm 0,0 UV-I 0 W/m 3,2 km/h 100 %
18.09.2019 00:20 11,1 C 58 % 1022,4 hPa 0,0 l/m 0,0 km/h N 360 0 min 0,000 mm 0,0 UV-I 0 W/m 3,2 km/h 100 %
18.09.2019 00:15 11,3 C 58 % 1022,4 hPa 0,0 l/m 0,0 km/h N-NW 337 0 min 0,000 mm 0,0 UV-I 0 W/m 6,4 km/h 100 %
18.09.2019 00:10 11,6 C 57 % 1022,3 hPa 0,0 l/m 0,0 km/h NW 315 0 min 0,000 mm 0,0 UV-I 0 W/m 4,8 km/h 100 %
18.09.2019 00:05 11,7 C 57 % 1022,3 hPa 0,0 l/m 1,6 km/h N 360 0 min 0,000 mm 0,0 UV-I 0 W/m 8,0 km/h 100 %
18.09.2019 00:00 11,9 C 57 % 1022,2 hPa 0,0 l/m 3,2 km/h N 360 0 min 0,025 mm 0,0 UV-I 0 W/m 11,3 km/h 97 %
_ Min-Zeit 05:55 16:20 00:00 - 00:10 - - - - - - 00:35 04:05
Minimum _ 3,8 C 29 % 1022,2 hPa - 0,0 km/h - - - - - - 0,0 km/h 67 %
_ Max-Zeit 16:35 06:10 10:55 00:00 10:35 - - 08:00 14:00 12:55 12:35 16:20 00:05
Maximum _ 18,0 C 80 % 1026,5 hPa 0,0 l/m 8,0 km/h
NO
- - 5 min 0,432 mm 4,6 UV-I 921 W/m 22,5 km/h
W-NW
100 %
Durchschnitt _ 11,3 C 55 % 1024,9 hPa #0,0 l/m 1,2 km/h N-NO - #9:00 h #2,564 mm 2,5 UV-I 369 W/m 4,7 km/h 99 %